Time;durP1;ratioP1;P1;durP2;ratioP2;P2;SDS_P1;SDS_P2;PMS_P1;PMS_P2;Temp;Humidity;BMP_temperature;BMP_pressure;BME280_temperature;BME280_humidity;BME280_pressure;Samples;Min_cycle;Max_cycle;Signal;HPM_P1;HPM_P2
2022/07/23 00:00:39;;;;;;;7.57;6.88;;;;;;;;;;2082310;28;20168;-56
2022/07/23 00:01:41;;;;;;;9.07;6.47;;;;;;;;;;2076099;28;20184;-55
2022/07/23 00:02:41;;;;;;;10.50;9.43;;;;;;;;;;2074307;28;20169;-54
2022/07/23 00:03:41;;;;;;;7.65;6.82;;;;;;;;;;2065148;28;20280;-56
2022/07/23 00:04:42;;;;;;;8.23;7.43;;;;;;;;;;2064362;28;20220;-56
2022/07/23 00:05:42;;;;;;;7.68;6.97;;;;;;;;;;2073905;28;20173;-56
2022/07/23 00:06:42;;;;;;;7.93;7.13;;;;;;;;;;2074008;28;20173;-56
2022/07/23 00:07:43;;;;;;;8.00;7.22;;;;;;;;;;2088475;23;20228;-60
2022/07/23 00:08:43;;;;;;;8.10;7.30;;;;;;;;;;2087604;28;20171;-61
2022/07/23 00:09:44;;;;;;;7.00;6.40;;;;;;;;;;2089875;28;20907;-62
2022/07/23 00:10:44;;;;;;;7.32;6.60;;;;;;;;;;2089482;28;20702;-61
2022/07/23 00:11:44;;;;;;;10.63;7.13;;;;;;;;;;2089890;28;20202;-62
2022/07/23 00:12:45;;;;;;;7.90;7.18;;;;;;;;;;2089178;28;20187;-63
2022/07/23 00:13:45;;;;;;;8.05;7.32;;;;;;;;;;2089705;28;20203;-61
2022/07/23 00:14:45;;;;;;;8.10;7.30;;;;;;;;;;2088418;28;20195;-63
2022/07/23 00:15:46;;;;;;;8.88;7.90;;;;;;;;;;2089397;28;20171;-63
2022/07/23 00:16:46;;;;;;;8.27;7.00;;;;;;;;;;2088799;28;20671;-62
2022/07/23 00:17:47;;;;;;;9.68;6.97;;;;;;;;;;2089780;28;20192;-65
2022/07/23 00:18:47;;;;;;;7.40;6.75;;;;;;;;;;2089500;28;20176;-64
2022/07/23 00:19:47;;;;;;;7.72;6.30;;;;;;;;;;2089894;28;20159;-61
2022/07/23 00:20:48;;;;;;;7.38;6.68;;;;;;;;;;2081102;28;20669;-61
2022/07/23 00:21:48;;;;;;;7.70;7.07;;;;;;;;;;2080882;28;20176;-61
2022/07/23 00:22:53;;;;;;;7.57;6.80;;;;;;;;;;2090045;28;20254;-62
2022/07/23 00:23:53;;;;;;;8.60;7.05;;;;;;;;;;2089528;28;20175;-64
2022/07/23 00:24:54;;;;;;;7.50;6.70;;;;;;;;;;2089105;28;20190;-60
2022/07/23 00:25:55;;;;;;;9.10;7.20;;;;;;;;;;2090070;28;20669;-59
2022/07/23 00:26:55;;;;;;;7.82;7.03;;;;;;;;;;2090124;28;20844;-60
2022/07/23 00:27:56;;;;;;;10.60;6.80;;;;;;;;;;2089426;28;20723;-65
2022/07/23 00:28:56;;;;;;;9.43;6.63;;;;;;;;;;2089309;28;20167;-61
2022/07/23 00:29:56;;;;;;;8.70;7.20;;;;;;;;;;2089278;28;20207;-62
2022/07/23 00:30:57;;;;;;;7.75;7.07;;;;;;;;;;2089033;28;20211;-61
2022/07/23 00:31:57;;;;;;;11.20;6.85;;;;;;;;;;2082158;28;20182;-62
2022/07/23 00:33:00;;;;;;;7.75;7.05;;;;;;;;;;2080875;28;20675;-63
2022/07/23 00:34:01;;;;;;;10.15;6.93;;;;;;;;;;2080253;28;20195;-58
2022/07/23 00:35:01;;;;;;;7.70;6.90;;;;;;;;;;2080854;28;20172;-61
2022/07/23 00:36:01;;;;;;;8.88;7.10;;;;;;;;;;2072923;28;20589;-61
2022/07/23 00:37:02;;;;;;;8.65;6.47;;;;;;;;;;2080630;28;20619;-60
2022/07/23 00:38:03;;;;;;;11.13;6.90;;;;;;;;;;2089820;28;20186;-58
2022/07/23 00:39:03;;;;;;;7.32;6.60;;;;;;;;;;2080956;28;20173;-62
2022/07/23 00:40:04;;;;;;;9.32;6.88;;;;;;;;;;2072828;28;20637;-61
2022/07/23 00:41:04;;;;;;;9.30;7.22;;;;;;;;;;2080896;28;20194;-60
2022/07/23 00:42:05;;;;;;;10.73;7.22;;;;;;;;;;2078886;28;20171;-60
2022/07/23 00:43:06;;;;;;;8.90;8.10;;;;;;;;;;2089500;28;20739;-60
2022/07/23 00:44:25;;;;;;;10.07;7.47;;;;;;;;;;2084596;28;20207;-60
2022/07/23 00:45:26;;;;;;;9.65;7.57;;;;;;;;;;2089427;28;20183;-60
2022/07/23 00:46:26;;;;;;;12.48;8.30;;;;;;;;;;2086324;28;20555;-62
2022/07/23 00:47:27;;;;;;;8.90;7.07;;;;;;;;;;2080718;28;20562;-61
2022/07/23 00:48:27;;;;;;;8.45;7.47;;;;;;;;;;2090164;28;20259;-61
2022/07/23 00:49:29;;;;;;;9.07;8.20;;;;;;;;;;2080855;28;20617;-63
2022/07/23 00:50:30;;;;;;;9.00;8.10;;;;;;;;;;2080796;28;20661;-62
2022/07/23 00:51:30;;;;;;;10.05;9.05;;;;;;;;;;2080435;28;20230;-59
2022/07/23 00:52:31;;;;;;;9.27;8.32;;;;;;;;;;2080870;28;20834;-63
2022/07/23 00:53:32;;;;;;;10.18;9.05;;;;;;;;;;2072476;28;20279;-65
2022/07/23 00:54:32;;;;;;;9.50;8.50;;;;;;;;;;2079659;28;20197;-64
2022/07/23 00:55:33;;;;;;;10.68;8.38;;;;;;;;;;2080869;28;20255;-60
2022/07/23 00:56:34;;;;;;;11.02;8.05;;;;;;;;;;2089441;28;20214;-59
2022/07/23 00:57:34;;;;;;;9.48;8.55;;;;;;;;;;2080604;28;20181;-62
2022/07/23 00:58:35;;;;;;;9.23;8.30;;;;;;;;;;2072509;28;20251;-61
2022/07/23 00:59:38;;;;;;;11.27;9.55;;;;;;;;;;2067294;28;20174;-63
2022/07/23 01:00:38;;;;;;;10.23;9.13;;;;;;;;;;2064774;28;20165;-62
2022/07/23 01:01:39;;;;;;;10.55;9.55;;;;;;;;;;2072573;28;20180;-61
2022/07/23 01:02:39;;;;;;;13.63;10.73;;;;;;;;;;2072905;28;20530;-63
2022/07/23 01:03:40;;;;;;;13.35;11.45;;;;;;;;;;2072463;28;20172;-61
2022/07/23 01:04:40;;;;;;;12.02;10.05;;;;;;;;;;2071849;28;20181;-62
2022/07/23 01:05:40;;;;;;;12.05;10.80;;;;;;;;;;2064533;28;20268;-61
2022/07/23 01:06:42;;;;;;;11.85;10.70;;;;;;;;;;2072428;28;20179;-63
2022/07/23 01:07:43;;;;;;;12.23;10.45;;;;;;;;;;2080417;28;20238;-63
2022/07/23 01:08:43;;;;;;;11.40;9.50;;;;;;;;;;2082220;28;20270;-61
2022/07/23 01:09:44;;;;;;;11.73;9.45;;;;;;;;;;2074109;28;20189;-62
2022/07/23 01:10:44;;;;;;;13.13;11.27;;;;;;;;;;2082388;28;20196;-63
2022/07/23 01:11:45;;;;;;;13.07;10.50;;;;;;;;;;2082309;28;20250;-63
2022/07/23 01:12:45;;;;;;;15.68;11.27;;;;;;;;;;2082308;28;20168;-58
2022/07/23 01:13:45;;;;;;;13.38;11.30;;;;;;;;;;2082288;28;20202;-59
2022/07/23 01:14:53;;;;;;;11.73;10.43;;;;;;;;;;2081435;28;20668;-61
2022/07/23 01:15:54;;;;;;;11.10;9.98;;;;;;;;;;2080292;28;20156;-62
2022/07/23 01:16:54;;;;;;;14.45;10.68;;;;;;;;;;2073539;28;20223;-57
2022/07/23 01:17:55;;;;;;;11.57;10.40;;;;;;;;;;2082354;28;20200;-62
2022/07/23 01:18:55;;;;;;;11.98;10.85;;;;;;;;;;2073152;28;20228;-61
2022/07/23 01:19:55;;;;;;;12.05;10.60;;;;;;;;;;2074255;28;20184;-59
2022/07/23 01:20:56;;;;;;;13.10;11.80;;;;;;;;;;2082300;28;20172;-63
2022/07/23 01:21:57;;;;;;;14.93;12.38;;;;;;;;;;2073685;28;20296;-60
2022/07/23 01:22:58;;;;;;;10.65;9.63;;;;;;;;;;2082315;28;20168;-62
2022/07/23 01:23:58;;;;;;;12.48;10.45;;;;;;;;;;2073428;28;20181;-62
2022/07/23 01:24:58;;;;;;;13.52;10.15;;;;;;;;;;2067304;28;20228;-61
2022/07/23 01:26:01;;;;;;;13.63;10.35;;;;;;;;;;2066147;28;20201;-56
2022/07/23 01:27:03;;;;;;;10.70;9.75;;;;;;;;;;2072641;28;20287;-62
2022/07/23 01:28:03;;;;;;;11.63;10.30;;;;;;;;;;2072667;28;20279;-66
2022/07/23 01:29:04;;;;;;;11.85;10.65;;;;;;;;;;2061695;28;20196;-64
2022/07/23 01:30:05;;;;;;;13.93;9.73;;;;;;;;;;2074107;28;20168;-62
2022/07/23 01:31:06;;;;;;;12.00;10.38;;;;;;;;;;2091069;28;20183;-64
2022/07/23 01:32:09;;;;;;;11.52;10.38;;;;;;;;;;2082124;28;20176;-61
2022/07/23 01:33:09;;;;;;;15.00;11.25;;;;;;;;;;2082000;28;20207;-65
2022/07/23 01:34:10;;;;;;;12.18;10.85;;;;;;;;;;2072602;28;20177;-63
2022/07/23 01:35:10;;;;;;;12.98;11.32;;;;;;;;;;2080303;28;20168;-58
2022/07/23 01:36:12;;;;;;;12.85;11.23;;;;;;;;;;2073873;28;20161;-61
2022/07/23 01:37:12;;;;;;;11.88;10.77;;;;;;;;;;2082296;28;20248;-63
2022/07/23 01:38:13;;;;;;;13.73;12.30;;;;;;;;;;2089809;28;20202;-59
2022/07/23 01:39:14;;;;;;;12.93;11.40;;;;;;;;;;2081947;28;20180;-62
2022/07/23 01:40:14;;;;;;;14.68;12.25;;;;;;;;;;2082129;28;20200;-64
2022/07/23 01:41:15;;;;;;;14.13;12.18;;;;;;;;;;2073991;28;20562;-57
2022/07/23 01:42:16;;;;;;;13.57;12.30;;;;;;;;;;2082029;28;20180;-60
2022/07/23 01:43:16;;;;;;;13.02;11.65;;;;;;;;;;2082361;28;20186;-61
2022/07/23 01:44:17;;;;;;;16.58;13.07;;;;;;;;;;2081238;28;20180;-63
2022/07/23 01:45:18;;;;;;;14.65;13.15;;;;;;;;;;2074033;28;20172;-62
2022/07/23 01:46:22;;;;;;;16.30;12.48;;;;;;;;;;2074218;28;20561;-63
2022/07/23 01:47:24;;;;;;;14.50;13.07;;;;;;;;;;2074124;28;20173;-63
2022/07/23 01:48:27;;;;;;;15.63;14.10;;;;;;;;;;2074168;28;20189;-65
2022/07/23 01:50:02;;;;;;;14.85;12.65;;;;;;;;;;2065317;28;20246;-61
2022/07/23 01:51:18;;;;;;;15.27;12.73;;;;;;;;;;2056466;28;20214;-63
2022/07/23 01:52:26;;;;;;;13.00;11.77;;;;;;;;;;2054046;28;20646;-61
2022/07/23 01:53:27;;;;;;;13.90;11.10;;;;;;;;;;2065976;28;20209;-66
2022/07/23 01:54:28;;;;;;;18.05;12.38;;;;;;;;;;2074709;28;20673;-64
2022/07/23 01:55:28;;;;;;;13.10;11.73;;;;;;;;;;2083559;28;20179;-63
2022/07/23 01:56:28;;;;;;;13.10;10.77;;;;;;;;;;2083769;28;20196;-62
2022/07/23 01:57:29;;;;;;;11.43;10.30;;;;;;;;;;2067395;28;20186;-64
2022/07/23 01:58:29;;;;;;;12.02;10.88;;;;;;;;;;2066753;28;20182;-58
2022/07/23 01:59:31;;;;;;;13.07;10.82;;;;;;;;;;2078706;28;20190;-59
2022/07/23 02:00:32;;;;;;;13.07;10.98;;;;;;;;;;2074499;28;20177;-64
2022/07/23 02:01:32;;;;;;;12.10;10.32;;;;;;;;;;2074643;28;20172;-61
2022/07/23 02:02:33;;;;;;;11.27;10.20;;;;;;;;;;2083124;28;20243;-62
2022/07/23 02:03:33;;;;;;;11.60;10.43;;;;;;;;;;2080475;28;20168;-63
2022/07/23 02:04:36;;;;;;;13.05;11.75;;;;;;;;;;2081737;28;20172;-63
2022/07/23 02:05:36;;;;;;;11.82;10.63;;;;;;;;;;2091105;28;20163;-63
2022/07/23 02:06:37;;;;;;;11.10;9.90;;;;;;;;;;2091663;28;20554;-62
2022/07/23 02:07:38;;;;;;;12.65;9.82;;;;;;;;;;2091592;28;20214;-65
2022/07/23 02:08:38;;;;;;;12.48;11.23;;;;;;;;;;2083409;28;20227;-62
2022/07/23 02:09:38;;;;;;;11.25;10.15;;;;;;;;;;2083507;28;20533;-62
2022/07/23 02:10:39;;;;;;;13.30;10.45;;;;;;;;;;2083460;28;20212;-64
2022/07/23 02:11:39;;;;;;;11.52;10.27;;;;;;;;;;2082858;28;20351;-63
2022/07/23 02:12:40;;;;;;;11.13;10.13;;;;;;;;;;2081902;28;20168;-62
2022/07/23 02:13:43;;;;;;;11.25;9.85;;;;;;;;;;2073870;28;20628;-59
2022/07/23 02:14:43;;;;;;;11.32;9.73;;;;;;;;;;2069741;28;20239;-61
2022/07/23 02:15:44;;;;;;;10.98;9.88;;;;;;;;;;2081684;28;20172;-62
2022/07/23 02:16:44;;;;;;;11.25;9.77;;;;;;;;;;2074057;28;20572;-63
2022/07/23 02:17:45;;;;;;;10.57;9.57;;;;;;;;;;2066897;28;20231;-58
2022/07/23 02:18:46;;;;;;;10.98;9.80;;;;;;;;;;2075124;28;20187;-60
2022/07/23 02:19:46;;;;;;;11.15;10.07;;;;;;;;;;2087122;28;20171;-66
2022/07/23 02:20:47;;;;;;;10.60;9.52;;;;;;;;;;2089917;28;20636;-61
2022/07/23 02:21:47;;;;;;;11.57;10.48;;;;;;;;;;2081745;28;20633;-58
2022/07/23 02:22:48;;;;;;;12.05;9.48;;;;;;;;;;2081671;28;20222;-61
2022/07/23 02:23:49;;;;;;;10.75;9.70;;;;;;;;;;2090489;28;20175;-62
2022/07/23 02:24:49;;;;;;;10.65;9.63;;;;;;;;;;2080851;28;20173;-62
2022/07/23 02:25:49;;;;;;;11.32;10.23;;;;;;;;;;2081999;28;20176;-59
2022/07/23 02:26:50;;;;;;;14.15;9.80;;;;;;;;;;2081726;28;20246;-63
2022/07/23 02:27:50;;;;;;;12.52;10.05;;;;;;;;;;2065943;28;20205;-63
2022/07/23 02:28:52;;;;;;;11.63;10.43;;;;;;;;;;2072403;28;20184;-62
2022/07/23 02:29:53;;;;;;;11.15;10.05;;;;;;;;;;2083813;28;20190;-62
2022/07/23 02:30:53;;;;;;;10.60;9.60;;;;;;;;;;2084215;28;20196;-62
2022/07/23 02:31:53;;;;;;;11.13;9.65;;;;;;;;;;2090716;28;20219;-62
2022/07/23 02:32:54;;;;;;;11.02;9.88;;;;;;;;;;2090153;28;20168;-63
2022/07/23 02:33:55;;;;;;;12.38;10.63;;;;;;;;;;2082548;28;20171;-62
2022/07/23 02:34:56;;;;;;;11.65;9.77;;;;;;;;;;2073378;28;20181;-61
2022/07/23 02:35:56;;;;;;;10.40;9.27;;;;;;;;;;2081890;28;20643;-62
2022/07/23 02:36:56;;;;;;;10.50;9.50;;;;;;;;;;2073427;28;20169;-63
2022/07/23 02:37:58;;;;;;;10.77;9.63;;;;;;;;;;2081420;28;20227;-66
2022/07/23 02:38:58;;;;;;;11.32;9.98;;;;;;;;;;2073758;28;20214;-62
2022/07/23 02:39:59;;;;;;;11.10;9.95;;;;;;;;;;2073840;28;20195;-65
2022/07/23 02:41:00;;;;;;;11.85;10.35;;;;;;;;;;2073598;28;20164;-61
2022/07/23 02:42:01;;;;;;;14.65;11.10;;;;;;;;;;2073536;28;20176;-60
2022/07/23 02:43:02;;;;;;;13.55;11.07;;;;;;;;;;2082054;28;20175;-64
2022/07/23 02:44:03;;;;;;;16.17;10.75;;;;;;;;;;2081243;28;20222;-62
2022/07/23 02:45:03;;;;;;;12.18;10.90;;;;;;;;;;2081491;28;20211;-62
2022/07/23 02:46:04;;;;;;;17.77;10.63;;;;;;;;;;2073674;28;20173;-66
2022/07/23 02:47:05;;;;;;;12.48;10.50;;;;;;;;;;2081934;28;20180;-65
2022/07/23 02:48:06;;;;;;;11.05;9.98;;;;;;;;;;2085826;28;20281;-64
2022/07/23 02:49:07;;;;;;;12.80;11.05;;;;;;;;;;2089975;28;20179;-64
2022/07/23 02:50:07;;;;;;;11.95;10.75;;;;;;;;;;2091753;28;20183;-62
2022/07/23 02:51:08;;;;;;;13.85;10.75;;;;;;;;;;2081811;28;20246;-64
2022/07/23 02:52:15;;;;;;;14.48;11.10;;;;;;;;;;2074351;28;20251;-64
2022/07/23 02:53:16;;;;;;;14.40;10.15;;;;;;;;;;2073916;28;20246;-64
2022/07/23 02:54:17;;;;;;;11.77;9.93;;;;;;;;;;2072728;28;20274;-62
2022/07/23 02:55:17;;;;;;;10.43;9.52;;;;;;;;;;2081879;28;20259;-63
2022/07/23 02:56:17;;;;;;;11.07;10.07;;;;;;;;;;2081359;28;20180;-62
2022/07/23 02:57:18;;;;;;;11.02;9.90;;;;;;;;;;2081719;28;20188;-58
2022/07/23 02:58:18;;;;;;;12.68;10.07;;;;;;;;;;2073569;28;20223;-63
2022/07/23 02:59:18;;;;;;;10.68;9.60;;;;;;;;;;2070772;28;20246;-61
2022/07/23 03:00:21;;;;;;;11.13;9.95;;;;;;;;;;2073406;28;20177;-64
2022/07/23 03:01:21;;;;;;;11.00;9.80;;;;;;;;;;2082263;28;20649;-62
2022/07/23 03:02:22;;;;;;;11.00;9.98;;;;;;;;;;2081569;28;20242;-64
2022/07/23 03:03:22;;;;;;;10.07;9.07;;;;;;;;;;2073558;28;20168;-61
2022/07/23 03:04:22;;;;;;;11.80;9.82;;;;;;;;;;2080986;28;20886;-61
2022/07/23 03:05:23;;;;;;;12.75;9.75;;;;;;;;;;2082087;28;20683;-64
2022/07/23 03:06:23;;;;;;;10.52;9.57;;;;;;;;;;2081556;28;20653;-62
2022/07/23 03:07:24;;;;;;;11.30;9.52;;;;;;;;;;2081605;28;20683;-60
2022/07/23 03:08:27;;;;;;;10.57;9.60;;;;;;;;;;2073722;28;20744;-65
2022/07/23 03:09:28;;;;;;;10.90;9.88;;;;;;;;;;2073668;28;20216;-62
2022/07/23 03:10:28;;;;;;;10.60;9.60;;;;;;;;;;2081355;28;20183;-62
2022/07/23 03:11:28;;;;;;;10.82;9.73;;;;;;;;;;2090506;28;20182;-64
2022/07/23 03:12:29;;;;;;;10.35;9.38;;;;;;;;;;2081712;28;20216;-62
2022/07/23 03:13:29;;;;;;;11.02;9.93;;;;;;;;;;2082080;28;20165;-63
2022/07/23 03:14:29;;;;;;;11.20;10.15;;;;;;;;;;2089986;28;20290;-62
2022/07/23 03:15:30;;;;;;;11.43;10.23;;;;;;;;;;2081954;28;20671;-61
2022/07/23 03:16:30;;;;;;;12.05;9.77;;;;;;;;;;2077332;28;20189;-63
2022/07/23 03:17:31;;;;;;;10.90;9.57;;;;;;;;;;2073802;28;20172;-62
2022/07/23 03:18:31;;;;;;;10.65;9.55;;;;;;;;;;2081496;28;20190;-64
2022/07/23 03:19:32;;;;;;;13.05;9.55;;;;;;;;;;2073608;28;20200;-62
2022/07/23 03:20:32;;;;;;;11.20;10.07;;;;;;;;;;2081111;28;20172;-63
2022/07/23 03:21:33;;;;;;;15.50;9.70;;;;;;;;;;2072949;28;20324;-62
2022/07/23 03:22:34;;;;;;;10.30;9.27;;;;;;;;;;2073652;28;20173;-62
2022/07/23 03:23:34;;;;;;;10.52;9.38;;;;;;;;;;2089842;28;20174;-59
2022/07/23 03:25:55;;;;;;;10.85;9.68;;;;;;;;;;2090145;28;20174;-62
2022/07/23 03:26:56;;;;;;;9.93;8.98;;;;;;;;;;2078631;28;20177;-61
2022/07/23 03:27:56;;;;;;;13.05;9.88;;;;;;;;;;2081893;28;20264;-61
2022/07/23 03:28:57;;;;;;;10.52;9.32;;;;;;;;;;2081775;28;20669;-62
2022/07/23 03:29:58;;;;;;;10.05;9.13;;;;;;;;;;2081248;28;20180;-63
2022/07/23 03:30:59;;;;;;;11.15;9.98;;;;;;;;;;2081361;28;20196;-66
2022/07/23 03:31:59;;;;;;;12.13;9.68;;;;;;;;;;2073361;28;20181;-61
2022/07/23 03:33:00;;;;;;;10.63;9.23;;;;;;;;;;2081901;28;20164;-59
2022/07/23 03:34:00;;;;;;;10.15;9.15;;;;;;;;;;2080792;28;20277;-60
2022/07/23 03:35:00;;;;;;;12.13;9.68;;;;;;;;;;2081924;28;20184;-64
2022/07/23 03:36:01;;;;;;;10.45;9.35;;;;;;;;;;2081268;28;20310;-63
2022/07/23 03:37:05;;;;;;;12.90;11.10;;;;;;;;;;2073922;28;20161;-60
2022/07/23 03:38:05;;;;;;;13.20;11.95;;;;;;;;;;2081639;28;20272;-61
2022/07/23 03:39:05;;;;;;;13.05;11.85;;;;;;;;;;2082400;28;20199;-61
2022/07/23 03:40:06;;;;;;;12.30;10.70;;;;;;;;;;2081590;28;20170;-60
2022/07/23 03:41:06;;;;;;;10.98;9.82;;;;;;;;;;2073691;28;20189;-61
2022/07/23 03:42:07;;;;;;;14.57;10.75;;;;;;;;;;2073545;28;20258;-63
2022/07/23 03:43:08;;;;;;;11.52;10.35;;;;;;;;;;2082183;28;20164;-63
2022/07/23 03:44:08;;;;;;;13.38;10.63;;;;;;;;;;2089832;28;20677;-64
2022/07/23 03:45:09;;;;;;;14.43;9.85;;;;;;;;;;2091780;28;20171;-64
2022/07/23 03:46:09;;;;;;;11.25;10.20;;;;;;;;;;2092118;28;20261;-62
2022/07/23 03:47:10;;;;;;;12.07;10.48;;;;;;;;;;2083137;28;20164;-66
2022/07/23 03:48:10;;;;;;;13.05;9.98;;;;;;;;;;2069908;28;20586;-63
2022/07/23 03:49:11;;;;;;;12.07;9.93;;;;;;;;;;2065832;28;20177;-64
2022/07/23 03:50:11;;;;;;;13.30;10.80;;;;;;;;;;2069921;28;20192;-62
2022/07/23 03:51:12;;;;;;;12.07;10.20;;;;;;;;;;2065520;28;20726;-60
2022/07/23 03:52:12;;;;;;;10.75;9.65;;;;;;;;;;2073446;28;20252;-64
2022/07/23 03:53:12;;;;;;;11.18;9.98;;;;;;;;;;2074831;28;20169;-62
2022/07/23 03:54:13;;;;;;;14.15;10.80;;;;;;;;;;2081610;28;20184;-62
2022/07/23 03:55:14;;;;;;;12.02;10.68;;;;;;;;;;2082065;28;20563;-60
2022/07/23 03:56:14;;;;;;;12.40;11.30;;;;;;;;;;2081888;28;20194;-64
2022/07/23 03:57:14;;;;;;;12.48;10.98;;;;;;;;;;2082068;28;20614;-60
2022/07/23 03:58:15;;;;;;;13.32;11.38;;;;;;;;;;2082574;28;20196;-61
2022/07/23 03:59:17;;;;;;;13.60;11.57;;;;;;;;;;2083452;28;20518;-63
2022/07/23 04:00:18;;;;;;;12.80;11.48;;;;;;;;;;2086027;28;20165;-64
2022/07/23 04:01:23;;;;;;;14.98;11.43;;;;;;;;;;2082145;28;20168;-66
2022/07/23 04:02:23;;;;;;;15.15;12.52;;;;;;;;;;2089380;28;20175;-62
2022/07/23 04:03:24;;;;;;;14.40;12.68;;;;;;;;;;2089489;28;20159;-65
2022/07/23 04:04:25;;;;;;;13.15;11.25;;;;;;;;;;2080601;28;20181;-66
2022/07/23 04:05:25;;;;;;;13.77;12.35;;;;;;;;;;2081595;28;20177;-65
2022/07/23 04:06:32;;;;;;;14.43;12.77;;;;;;;;;;2081975;28;20172;-64
2022/07/23 04:07:33;;;;;;;14.85;12.63;;;;;;;;;;2089365;28;20164;-65
2022/07/23 04:08:34;;;;;;;14.50;11.98;;;;;;;;;;2090038;28;20248;-65
2022/07/23 04:09:35;;;;;;;15.18;13.68;;;;;;;;;;2082099;28;20169;-63
2022/07/23 04:10:35;;;;;;;15.80;12.70;;;;;;;;;;2089761;28;20172;-66
2022/07/23 04:11:36;;;;;;;15.70;12.90;;;;;;;;;;2089258;28;20781;-64
2022/07/23 04:12:37;;;;;;;14.60;12.63;;;;;;;;;;2089890;28;20164;-64
2022/07/23 04:13:38;;;;;;;17.02;12.93;;;;;;;;;;2088461;28;20200;-66
2022/07/23 04:14:38;;;;;;;14.70;12.38;;;;;;;;;;2080538;28;20165;-65
2022/07/23 04:15:39;;;;;;;14.57;13.07;;;;;;;;;;2072503;28;20181;-62
2022/07/23 04:16:40;;;;;;;13.80;12.30;;;;;;;;;;2088971;28;20251;-66
2022/07/23 04:17:40;;;;;;;16.75;12.05;;;;;;;;;;2084599;28;20203;-64
2022/07/23 04:18:40;;;;;;;13.57;12.32;;;;;;;;;;2079576;28;20188;-62
2022/07/23 04:19:47;;;;;;;13.25;11.80;;;;;;;;;;2080810;28;20184;-64
2022/07/23 04:20:51;;;;;;;13.73;12.38;;;;;;;;;;2090614;28;20191;-62
2022/07/23 04:21:52;;;;;;;16.30;13.00;;;;;;;;;;2087338;28;20235;-66
2022/07/23 04:22:52;;;;;;;18.65;13.25;;;;;;;;;;2090840;28;20168;-62
2022/07/23 04:23:52;;;;;;;15.70;12.45;;;;;;;;;;2096656;28;20195;-67
2022/07/23 04:24:54;;;;;;;15.02;12.98;;;;;;;;;;2088217;28;20238;-61
2022/07/23 04:25:54;;;;;;;17.40;12.52;;;;;;;;;;2088678;28;20173;-63
2022/07/23 04:26:54;;;;;;;17.05;13.10;;;;;;;;;;2082634;28;20184;-64
2022/07/23 04:27:55;;;;;;;14.07;12.68;;;;;;;;;;2091294;28;20217;-62
2022/07/23 04:28:55;;;;;;;15.63;12.65;;;;;;;;;;2096440;28;20171;-63
2022/07/23 04:29:55;;;;;;;15.63;13.10;;;;;;;;;;2086745;28;20279;-64
2022/07/23 04:30:58;;;;;;;13.55;12.15;;;;;;;;;;2088383;28;20274;-59
2022/07/23 04:31:59;;;;;;;14.02;12.55;;;;;;;;;;2087563;28;20191;-60
2022/07/23 04:32:59;;;;;;;13.98;12.35;;;;;;;;;;2081485;28;20680;-59
2022/07/23 04:34:02;;;;;;;17.10;13.35;;;;;;;;;;2080702;28;20210;-58
2022/07/23 04:35:02;;;;;;;14.88;13.13;;;;;;;;;;2081602;28;20283;-63
2022/07/23 04:36:03;;;;;;;13.90;12.60;;;;;;;;;;2087493;28;20166;-60
2022/07/23 04:37:03;;;;;;;14.20;12.52;;;;;;;;;;2087781;28;20176;-62
2022/07/23 04:38:05;;;;;;;13.85;12.45;;;;;;;;;;2073423;28;20242;-60
2022/07/23 04:39:06;;;;;;;14.00;12.20;;;;;;;;;;2073770;28;20277;-60
2022/07/23 04:40:07;;;;;;;14.70;12.52;;;;;;;;;;2067836;28;20177;-57
2022/07/23 04:41:07;;;;;;;15.45;13.13;;;;;;;;;;2079772;28;20180;-62
2022/07/23 04:42:08;;;;;;;12.77;11.63;;;;;;;;;;2085355;28;20567;-64
2022/07/23 04:43:08;;;;;;;14.77;12.80;;;;;;;;;;2076251;28;20573;-61
2022/07/23 04:44:14;;;;;;;13.77;12.43;;;;;;;;;;2072562;28;20220;-60
2022/07/23 04:45:15;;;;;;;13.60;12.30;;;;;;;;;;2074168;28;20643;-62
2022/07/23 04:46:17;;;;;;;14.80;13.07;;;;;;;;;;2079118;28;20249;-61
2022/07/23 04:47:21;;;;;;;13.20;12.00;;;;;;;;;;2083306;28;20236;-60
2022/07/23 04:48:22;;;;;;;14.02;12.63;;;;;;;;;;2087566;28;20655;-62
2022/07/23 04:49:29;;;;;;;14.25;11.95;;;;;;;;;;2079181;28;20199;-62
2022/07/23 04:50:29;;;;;;;17.00;13.23;;;;;;;;;;2074456;28;20778;-59
2022/07/23 04:51:32;;;;;;;14.75;13.10;;;;;;;;;;2065544;28;20181;-63
2022/07/23 04:52:32;;;;;;;15.07;13.30;;;;;;;;;;2072615;28;20540;-57
2022/07/23 04:53:33;;;;;;;16.02;13.98;;;;;;;;;;2073262;28;20248;-60
2022/07/23 04:54:34;;;;;;;18.02;13.15;;;;;;;;;;2072309;28;20308;-63
2022/07/23 04:55:36;;;;;;;15.15;12.38;;;;;;;;;;2073110;28;20723;-62
2022/07/23 04:56:37;;;;;;;14.52;13.02;;;;;;;;;;2081243;28;20181;-61
2022/07/23 04:57:37;;;;;;;14.25;12.85;;;;;;;;;;2072987;28;20248;-61
2022/07/23 04:58:38;;;;;;;13.70;12.02;;;;;;;;;;2072956;28;20179;-60
2022/07/23 04:59:38;;;;;;;14.30;12.90;;;;;;;;;;2073879;28;20177;-62
2022/07/23 05:00:39;;;;;;;13.98;12.63;;;;;;;;;;2074552;28;20169;-60
2022/07/23 05:01:41;;;;;;;14.00;12.43;;;;;;;;;;2081434;28;20175;-61
2022/07/23 05:02:41;;;;;;;14.32;12.73;;;;;;;;;;2073057;28;20177;-61
2022/07/23 05:03:42;;;;;;;14.23;12.60;;;;;;;;;;2066319;28;20177;-63
2022/07/23 05:04:43;;;;;;;13.48;12.10;;;;;;;;;;2065393;28;20201;-61
2022/07/23 05:05:43;;;;;;;14.30;12.70;;;;;;;;;;2074185;28;20649;-62
2022/07/23 05:06:48;;;;;;;14.35;12.95;;;;;;;;;;2073516;28;20181;-60
2022/07/23 05:07:49;;;;;;;15.68;12.23;;;;;;;;;;2073382;28;20684;-61
2022/07/23 05:08:50;;;;;;;14.75;13.27;;;;;;;;;;2081756;28;20168;-60
2022/07/23 05:09:50;;;;;;;14.85;13.25;;;;;;;;;;2073425;28;20547;-60
2022/07/23 05:10:51;;;;;;;13.60;12.15;;;;;;;;;;2073434;28;20200;-62
2022/07/23 05:11:52;;;;;;;12.60;11.07;;;;;;;;;;2081883;28;20183;-62
2022/07/23 05:12:54;;;;;;;12.90;11.20;;;;;;;;;;2081650;28;20172;-61
2022/07/23 05:13:54;;;;;;;13.48;12.13;;;;;;;;;;2081466;28;20701;-58
2022/07/23 05:14:55;;;;;;;13.63;12.20;;;;;;;;;;2068066;28;20696;-62
2022/07/23 05:15:56;;;;;;;13.60;12.20;;;;;;;;;;2076489;28;20554;-62
2022/07/23 05:16:58;;;;;;;14.30;12.90;;;;;;;;;;2086755;28;20642;-61
2022/07/23 05:17:59;;;;;;;13.57;12.23;;;;;;;;;;2081002;28;20183;-61
2022/07/23 05:19:01;;;;;;;15.18;12.40;;;;;;;;;;2082293;28;20259;-61
2022/07/23 05:20:02;;;;;;;15.52;12.13;;;;;;;;;;2082135;28;20161;-61
2022/07/23 05:21:03;;;;;;;15.32;12.95;;;;;;;;;;2074722;28;20169;-61
2022/07/23 05:22:03;;;;;;;14.50;12.35;;;;;;;;;;2082521;28;20180;-58
2022/07/23 05:23:04;;;;;;;15.80;12.32;;;;;;;;;;2078412;28;20585;-65
2022/07/23 05:24:04;;;;;;;13.60;12.30;;;;;;;;;;2065645;28;20173;-59
2022/07/23 05:25:05;;;;;;;13.90;12.52;;;;;;;;;;2074891;28;20270;-58
2022/07/23 05:26:06;;;;;;;13.18;11.77;;;;;;;;;;2074561;28;20173;-62
2022/07/23 05:27:07;;;;;;;14.07;12.63;;;;;;;;;;2074443;28;20181;-59
2022/07/23 05:28:07;;;;;;;14.10;12.77;;;;;;;;;;2066549;28;20190;-62
2022/07/23 05:29:08;;;;;;;13.68;11.95;;;;;;;;;;2074685;28;20188;-59
2022/07/23 05:30:09;;;;;;;14.07;12.10;;;;;;;;;;2075222;28;20630;-61
2022/07/23 05:31:11;;;;;;;14.35;12.80;;;;;;;;;;2074199;28;20286;-59
2022/07/23 05:32:11;;;;;;;12.55;11.25;;;;;;;;;;2066445;28;20651;-62
2022/07/23 05:33:15;;;;;;;12.20;10.98;;;;;;;;;;2074590;28;20646;-62
2022/07/23 05:34:16;;;;;;;13.75;10.95;;;;;;;;;;2067016;28;20173;-63
2022/07/23 05:35:17;;;;;;;13.70;12.35;;;;;;;;;;2066399;28;20181;-59
2022/07/23 05:36:26;;;;;;;14.98;12.48;;;;;;;;;;2068830;28;20198;-60
2022/07/23 05:37:29;;;;;;;13.50;12.27;;;;;;;;;;2074638;28;20196;-62
2022/07/23 05:38:29;;;;;;;14.00;12.60;;;;;;;;;;2075147;28;20566;-57
2022/07/23 05:39:32;;;;;;;14.73;13.05;;;;;;;;;;2083383;28;20175;-62
2022/07/23 05:40:33;;;;;;;14.98;13.38;;;;;;;;;;2083712;28;20236;-61
2022/07/23 05:41:33;;;;;;;13.90;12.48;;;;;;;;;;2082770;28;20168;-62
2022/07/23 05:42:36;;;;;;;13.25;12.05;;;;;;;;;;2075277;28;20172;-61
2022/07/23 05:43:37;;;;;;;13.82;12.45;;;;;;;;;;2067186;28;20281;-65
2022/07/23 05:44:43;;;;;;;13.98;12.68;;;;;;;;;;2082413;28;20211;-59
2022/07/23 05:45:43;;;;;;;14.93;12.48;;;;;;;;;;2075554;28;20723;-59
2022/07/23 05:46:44;;;;;;;13.65;12.32;;;;;;;;;;2084140;28;20692;-62
2022/07/23 05:47:49;;;;;;;16.02;11.57;;;;;;;;;;2076228;28;20754;-64
2022/07/23 05:48:58;;;;;;;13.48;12.07;;;;;;;;;;2076061;28;20232;-58
2022/07/23 05:50:17;;;;;;;13.75;12.02;;;;;;;;;;2085680;28;20164;-60
2022/07/23 05:51:26;;;;;;;12.98;11.65;;;;;;;;;;2087681;28;20199;-60
2022/07/23 05:52:27;;;;;;;14.18;12.15;;;;;;;;;;2083357;28;20202;-60
2022/07/23 05:53:47;;;;;;;13.63;12.30;;;;;;;;;;2086433;28;20268;-59
2022/07/23 05:54:52;;;;;;;13.25;12.07;;;;;;;;;;2084776;28;20184;-61
2022/07/23 05:55:53;;;;;;;12.60;11.45;;;;;;;;;;2077608;28;20668;-61
2022/07/23 05:56:53;;;;;;;17.10;12.25;;;;;;;;;;2085983;28;20172;-60
2022/07/23 05:57:53;;;;;;;14.68;11.13;;;;;;;;;;2077802;28;20208;-59
2022/07/23 05:58:54;;;;;;;12.05;10.80;;;;;;;;;;2076450;28;20185;-63
2022/07/23 05:59:54;;;;;;;14.10;11.82;;;;;;;;;;2076847;28;20547;-61
2022/07/23 06:00:54;;;;;;;12.40;11.18;;;;;;;;;;2076988;28;20719;-59